createdAt,value
2023-03-31T00:00:58.392Z,63.94
2023-03-31T00:02:23.150Z,64.00
2023-03-31T00:03:51.501Z,63.83
2023-03-31T00:05:18.444Z,63.92
2023-03-31T00:06:43.799Z,63.83
2023-03-31T00:08:04.992Z,64.05
2023-03-31T00:09:30.244Z,64.13
2023-03-31T00:11:00.512Z,63.91
2023-03-31T00:12:23.788Z,64.16
2023-03-31T00:13:55.490Z,64.13
2023-03-31T00:15:18.267Z,64.22
2023-03-31T00:16:43.102Z,64.17
2023-03-31T00:18:33.532Z,64.10
2023-03-31T00:20:00.999Z,64.35
2023-03-31T00:21:29.914Z,64.36
2023-03-31T00:22:54.787Z,64.50
2023-03-31T00:24:26.093Z,64.39
2023-03-31T00:25:48.010Z,64.58
2023-03-31T00:27:15.911Z,64.67
2023-03-31T00:28:43.211Z,64.88
2023-03-31T00:30:12.919Z,64.54
2023-03-31T00:31:39.187Z,64.99
2023-03-31T00:33:01.949Z,64.50
2023-03-31T00:34:30.234Z,65.03
2023-03-31T00:36:03.733Z,64.63
2023-03-31T00:37:28.810Z,64.91
2023-03-31T00:38:56.815Z,65.08
2023-03-31T00:40:21.945Z,64.98
2023-03-31T00:41:47.297Z,65.21
2023-03-31T00:43:25.520Z,65.20
2023-03-31T00:45:23.229Z,65.25
2023-03-31T00:46:52.623Z,65.19
2023-03-31T00:48:23.181Z,65.01
2023-03-31T00:49:55.626Z,65.19
2023-03-31T00:51:24.006Z,65.26
2023-03-31T00:52:51.532Z,65.46
2023-03-31T00:54:13.342Z,65.47
2023-03-31T00:55:44.852Z,65.39
2023-03-31T00:57:10.435Z,65.62
2023-03-31T00:58:35.127Z,65.65
2023-03-31T01:00:07.435Z,65.58
2023-03-31T01:01:44.315Z,65.38
2023-03-31T01:03:10.519Z,65.36
2023-03-31T01:04:39.606Z,65.43
2023-03-31T01:06:12.780Z,65.42
2023-03-31T01:07:42.682Z,65.54
2023-03-31T01:09:10.523Z,65.54
2023-03-31T01:10:41.802Z,65.85
2023-03-31T01:12:12.474Z,65.65
2023-03-31T01:13:50.074Z,65.65
2023-03-31T01:15:34.435Z,65.66
2023-03-31T01:17:07.221Z,65.71
2023-03-31T01:18:44.318Z,65.54
2023-03-31T01:20:23.182Z,65.60
2023-03-31T01:22:20.075Z,65.70
2023-03-31T01:24:19.686Z,65.63
2023-03-31T01:26:30.245Z,65.70
2023-03-31T01:28:08.551Z,65.83
2023-03-31T01:29:52.412Z,65.87
2023-03-31T01:34:00.603Z,65.71
2023-03-31T01:35:39.110Z,65.91
2023-03-31T01:37:30.241Z,66.12
2023-03-31T01:39:17.495Z,65.84
2023-03-31T01:40:59.108Z,66.05
2023-03-31T01:42:32.686Z,66.24
2023-03-31T01:44:08.468Z,66.27
2023-03-31T01:45:46.738Z,66.21
2023-03-31T01:47:21.225Z,66.15
2023-03-31T01:49:00.946Z,66.32
2023-03-31T01:50:36.458Z,66.19
2023-03-31T01:52:06.800Z,66.48
2023-03-31T01:53:40.676Z,66.31
2023-03-31T01:55:10.872Z,66.42
2023-03-31T01:56:51.208Z,66.46
2023-03-31T01:58:21.813Z,66.48
2023-03-31T01:59:54.474Z,66.19
2023-03-31T02:01:23.698Z,66.48
2023-03-31T02:02:50.932Z,66.49
2023-03-31T02:04:27.718Z,66.57
2023-03-31T02:05:54.517Z,66.49
2023-03-31T02:07:21.194Z,66.60
2023-03-31T02:08:48.089Z,66.45
2023-03-31T02:10:18.456Z,66.55
2023-03-31T02:11:51.928Z,66.52
2023-03-31T02:13:19.185Z,66.62
2023-03-31T02:14:46.696Z,66.49
2023-03-31T02:16:14.667Z,66.62
2023-03-31T02:17:42.667Z,66.60
2023-03-31T02:19:14.518Z,66.44
2023-03-31T02:20:39.714Z,66.61
2023-03-31T02:22:07.072Z,66.60
2023-03-31T02:23:35.084Z,66.68
2023-03-31T02:25:05.338Z,66.69
2023-03-31T02:26:35.424Z,66.73
2023-03-31T02:28:07.107Z,66.74
2023-03-31T02:29:31.594Z,66.66
2023-03-31T02:31:17.045Z,66.76
2023-03-31T02:32:49.735Z,66.76
2023-03-31T02:34:18.350Z,66.72
2023-03-31T02:35:39.845Z,66.72
2023-03-31T02:37:14.738Z,66.74
2023-03-31T02:38:47.672Z,66.66
2023-03-31T02:40:31.043Z,66.98
2023-03-31T02:42:02.515Z,66.81
2023-03-31T02:43:42.558Z,66.77
2023-03-31T02:45:09.150Z,66.91
2023-03-31T02:46:54.914Z,66.82
2023-03-31T02:48:20.633Z,66.88
2023-03-31T02:50:06.487Z,67.06
2023-03-31T02:52:09.264Z,66.79
2023-03-31T02:53:52.647Z,66.88
2023-03-31T02:55:37.761Z,66.91
2023-03-31T02:57:36.248Z,66.79
2023-03-31T02:59:27.356Z,66.79
2023-03-31T03:01:13.568Z,66.85
2023-03-31T03:02:54.796Z,67.07
2023-03-31T03:05:11.863Z,66.82
2023-03-31T03:06:54.181Z,66.87
2023-03-31T03:08:30.970Z,66.87
2023-03-31T03:10:02.601Z,66.79
2023-03-31T03:11:48.510Z,66.86
2023-03-31T03:13:28.115Z,67.00
2023-03-31T03:15:04.098Z,66.92
2023-03-31T03:16:48.384Z,66.74
2023-03-31T03:18:10.825Z,66.95
2023-03-31T03:19:34.911Z,66.69
2023-03-31T03:20:59.304Z,66.72
2023-03-31T03:22:23.447Z,66.86
2023-03-31T03:23:52.113Z,66.96
2023-03-31T03:25:18.517Z,67.14
2023-03-31T03:26:40.431Z,67.02
2023-03-31T03:28:04.364Z,66.87
2023-03-31T03:29:31.110Z,67.07
2023-03-31T03:30:58.457Z,66.94
2023-03-31T03:32:23.446Z,67.13
2023-03-31T03:33:45.772Z,67.04
2023-03-31T03:35:11.481Z,67.04
2023-03-31T03:36:40.688Z,66.95
2023-03-31T03:38:09.670Z,66.95
2023-03-31T03:39:39.653Z,67.00
2023-03-31T03:41:10.031Z,66.94
2023-03-31T03:42:38.414Z,66.84
2023-03-31T03:44:05.377Z,66.99
2023-03-31T03:45:31.638Z,66.90
2023-03-31T03:47:01.789Z,66.98
2023-03-31T03:48:27.304Z,66.93
2023-03-31T03:49:50.736Z,66.91
2023-03-31T03:51:13.302Z,67.00
2023-03-31T03:52:50.274Z,66.86
2023-03-31T03:54:18.728Z,66.96
2023-03-31T03:55:49.183Z,66.87
2023-03-31T03:57:11.536Z,66.90
2023-03-31T03:58:37.240Z,66.62
2023-03-31T04:00:11.333Z,66.79
2023-03-31T04:01:33.243Z,66.49
2023-03-31T04:02:57.590Z,66.62
2023-03-31T04:04:20.875Z,66.45
2023-03-31T04:05:50.125Z,66.46
2023-03-31T04:07:17.170Z,66.55
2023-03-31T04:08:45.641Z,66.59
2023-03-31T04:10:17.370Z,66.67
2023-03-31T04:11:43.908Z,66.32
2023-03-31T04:13:16.293Z,66.53
2023-03-31T04:14:46.216Z,66.32
2023-03-31T04:16:14.526Z,66.41
2023-03-31T04:17:42.677Z,66.42
2023-03-31T04:19:13.239Z,66.50
2023-03-31T04:20:45.668Z,66.51
2023-03-31T04:22:07.023Z,66.57
2023-03-31T04:23:29.712Z,66.48
2023-03-31T04:24:52.968Z,66.51
2023-03-31T04:26:18.302Z,66.59
2023-03-31T04:27:51.111Z,66.56
2023-03-31T04:29:21.957Z,66.64
2023-03-31T04:30:50.105Z,66.56
2023-03-31T04:32:27.640Z,66.58
2023-03-31T04:33:58.073Z,66.34
2023-03-31T04:35:25.331Z,66.50
2023-03-31T04:36:51.126Z,66.71
2023-03-31T04:38:18.791Z,66.49
2023-03-31T04:39:50.165Z,66.62
2023-03-31T04:41:13.498Z,66.53
2023-03-31T04:42:38.852Z,66.60
2023-03-31T04:44:06.803Z,66.68
2023-03-31T04:45:36.384Z,66.55
2023-03-31T04:47:07.163Z,66.59
2023-03-31T04:48:32.107Z,66.51
2023-03-31T04:49:55.679Z,66.56
2023-03-31T04:52:00.742Z,66.50
2023-03-31T04:53:32.100Z,66.60
2023-03-31T04:55:01.026Z,66.75
2023-03-31T04:56:38.725Z,66.43
2023-03-31T04:58:01.834Z,66.42
2023-03-31T04:59:24.585Z,66.58
2023-03-31T05:00:48.831Z,66.43
2023-03-31T05:02:16.013Z,66.48
2023-03-31T05:03:46.671Z,66.36
2023-03-31T05:05:12.683Z,66.44
2023-03-31T05:06:42.762Z,66.48
2023-03-31T05:08:21.355Z,66.53
2023-03-31T05:09:47.553Z,66.47
2023-03-31T05:11:25.438Z,66.49
2023-03-31T05:13:12.391Z,66.35
2023-03-31T05:15:00.565Z,66.33
2023-03-31T05:16:31.548Z,66.32
2023-03-31T05:18:08.677Z,66.35
2023-03-31T05:19:44.295Z,66.23
2023-03-31T05:21:38.743Z,66.40
2023-03-31T05:23:01.378Z,66.05
2023-03-31T05:24:28.541Z,66.15
2023-03-31T05:25:49.888Z,65.93
2023-03-31T05:27:15.280Z,66.25
2023-03-31T05:28:37.214Z,66.31
2023-03-31T05:30:29.920Z,66.09
2023-03-31T05:31:54.073Z,66.08
2023-03-31T05:33:16.749Z,66.11
2023-03-31T05:34:39.002Z,66.25
2023-03-31T05:36:01.896Z,66.16
2023-03-31T05:37:24.428Z,66.06
2023-03-31T05:38:47.829Z,66.21
2023-03-31T05:40:11.726Z,65.95
2023-03-31T05:41:33.887Z,66.04
2023-03-31T05:42:56.052Z,65.48
2023-03-31T05:44:20.851Z,65.58
2023-03-31T05:45:43.094Z,65.52
2023-03-31T05:47:07.064Z,65.34
2023-03-31T05:48:29.480Z,65.21
2023-03-31T05:49:52.201Z,65.36
2023-03-31T05:51:17.649Z,65.10
2023-03-31T05:52:39.794Z,65.06
2023-03-31T05:54:02.113Z,64.92
2023-03-31T05:55:27.632Z,65.07
2023-03-31T05:56:50.394Z,64.66
2023-03-31T05:58:12.599Z,64.47
2023-03-31T05:59:35.706Z,64.71
2023-03-31T06:01:07.571Z,64.42
2023-03-31T06:02:30.142Z,64.43
2023-03-31T06:04:18.893Z,63.93
2023-03-31T06:05:55.317Z,64.12
2023-03-31T06:07:47.684Z,63.79
2023-03-31T06:09:52.898Z,63.49
2023-03-31T06:11:40.893Z,62.96
2023-03-31T06:13:05.111Z,62.71
2023-03-31T06:14:49.873Z,62.44
2023-03-31T06:18:43.510Z,61.64
2023-03-31T06:20:16.353Z,61.33
2023-03-31T06:21:49.255Z,61.21
2023-03-31T06:23:13.888Z,60.43
2023-03-31T06:24:39.212Z,60.24
2023-03-31T06:26:06.515Z,59.72
2023-03-31T06:27:32.518Z,59.42
2023-03-31T06:28:54.918Z,58.75
2023-03-31T06:30:32.704Z,58.86
2023-03-31T06:31:55.201Z,59.04
2023-03-31T06:33:17.886Z,58.78
2023-03-31T06:34:40.579Z,58.50
2023-03-31T06:36:05.715Z,58.27
2023-03-31T06:37:28.247Z,58.21
2023-03-31T06:38:52.158Z,58.05
2023-03-31T06:40:14.824Z,57.82
2023-03-31T06:41:38.900Z,57.58
2023-03-31T06:43:02.210Z,57.16
2023-03-31T06:44:24.770Z,56.78
2023-03-31T06:45:52.420Z,56.38
2023-03-31T06:47:15.772Z,55.95
2023-03-31T06:48:37.340Z,55.54
2023-03-31T06:49:59.744Z,55.33
2023-03-31T06:51:22.005Z,54.96
2023-03-31T06:52:44.357Z,54.41
2023-03-31T06:54:06.938Z,53.95
2023-03-31T06:55:29.029Z,53.64
2023-03-31T06:56:51.123Z,53.25
2023-03-31T06:58:15.231Z,52.13
2023-03-31T06:59:41.196Z,51.11
2023-03-31T07:01:04.935Z,50.20
2023-03-31T07:02:30.935Z,50.21
2023-03-31T07:03:53.190Z,49.43
2023-03-31T07:05:16.809Z,49.17
2023-03-31T07:06:41.450Z,48.88
2023-03-31T07:08:03.348Z,48.38
2023-03-31T07:09:25.295Z,47.83
2023-03-31T07:10:49.015Z,47.22
2023-03-31T07:12:11.616Z,46.91
2023-03-31T07:13:38.323Z,46.80
2023-03-31T07:15:00.562Z,46.52
2023-03-31T07:16:23.833Z,45.86
2023-03-31T07:17:46.047Z,45.67
2023-03-31T07:19:13.345Z,45.22
2023-03-31T07:20:38.295Z,45.02
2023-03-31T07:22:00.773Z,45.12
2023-03-31T07:23:23.004Z,44.79
2023-03-31T07:24:45.135Z,45.29
2023-03-31T07:26:08.009Z,45.19
2023-03-31T07:27:30.614Z,45.29
2023-03-31T07:28:56.687Z,44.94
2023-03-31T07:30:20.856Z,44.66
2023-03-31T07:31:43.031Z,44.85
2023-03-31T07:33:05.389Z,44.79
2023-03-31T07:34:28.028Z,44.72
2023-03-31T07:36:00.301Z,44.51
2023-03-31T07:37:36.834Z,44.28
2023-03-31T07:38:59.501Z,44.55
2023-03-31T07:40:25.311Z,44.64
2023-03-31T07:41:47.572Z,44.68
2023-03-31T07:43:10.024Z,44.79
2023-03-31T07:44:37.133Z,44.84
2023-03-31T07:45:59.400Z,44.88
2023-03-31T07:47:21.647Z,44.92
2023-03-31T07:48:44.091Z,44.80
2023-03-31T07:50:07.696Z,44.76
2023-03-31T07:51:30.108Z,44.48
2023-03-31T07:52:52.973Z,44.52
2023-03-31T07:54:14.985Z,44.28
2023-03-31T07:57:20.426Z,43.84
2023-03-31T07:58:42.841Z,42.90
2023-03-31T08:00:08.679Z,41.42
2023-03-31T08:01:37.012Z,40.51
2023-03-31T08:02:59.275Z,38.28
2023-03-31T08:04:21.642Z,34.39
2023-03-31T08:05:43.873Z,31.47
2023-03-31T08:07:06.566Z,29.60
2023-03-31T08:08:28.754Z,30.17
2023-03-31T08:09:53.893Z,30.89
2023-03-31T08:11:15.891Z,30.92
2023-03-31T08:12:37.978Z,30.52
2023-03-31T08:14:00.287Z,30.15
2023-03-31T08:15:25.865Z,29.40
2023-03-31T08:16:48.089Z,29.32
2023-03-31T08:18:09.748Z,30.72
2023-03-31T08:19:31.636Z,30.57
2023-03-31T08:20:53.788Z,30.20
2023-03-31T08:22:17.901Z,30.90
2023-03-31T08:23:40.059Z,30.55
2023-03-31T08:25:02.395Z,29.98
2023-03-31T08:26:25.717Z,29.39
2023-03-31T08:27:51.004Z,29.66
2023-03-31T08:29:13.303Z,29.62
2023-03-31T08:30:41.487Z,29.15
2023-03-31T08:32:03.838Z,27.02
2023-03-31T08:33:26.204Z,27.28
2023-03-31T08:34:48.343Z,27.77
2023-03-31T08:36:11.858Z,28.35
2023-03-31T08:37:35.741Z,28.49
2023-03-31T08:38:58.243Z,29.33
2023-03-31T08:40:23.958Z,29.82
2023-03-31T08:41:56.333Z,30.49
2023-03-31T08:43:24.595Z,30.97
2023-03-31T08:44:51.497Z,31.25
2023-03-31T08:46:17.206Z,31.75
2023-03-31T08:47:41.798Z,32.05
2023-03-31T08:49:06.102Z,32.34
2023-03-31T08:50:31.947Z,32.27
2023-03-31T08:51:57.818Z,32.14
2023-03-31T08:53:25.266Z,32.13
2023-03-31T08:54:50.872Z,32.16
2023-03-31T08:56:18.490Z,32.04
2023-03-31T08:57:56.220Z,32.06
2023-03-31T08:59:26.347Z,31.67
2023-03-31T09:00:58.686Z,31.54
2023-03-31T09:02:33.808Z,31.33
2023-03-31T09:04:27.346Z,31.19
2023-03-31T09:06:12.994Z,30.72
2023-03-31T09:07:42.432Z,30.87
2023-03-31T09:09:08.670Z,30.92
2023-03-31T09:10:39.836Z,31.18
2023-03-31T09:12:08.078Z,30.84
2023-03-31T09:13:58.485Z,30.77
2023-03-31T09:15:27.626Z,30.11
2023-03-31T09:17:01.068Z,29.34
2023-03-31T09:18:31.949Z,29.80
2023-03-31T09:19:59.045Z,29.55
2023-03-31T09:21:27.693Z,28.37
2023-03-31T09:22:54.588Z,27.33
2023-03-31T09:24:21.838Z,26.41
2023-03-31T09:25:45.840Z,26.71
2023-03-31T09:27:12.797Z,26.97
2023-03-31T09:28:39.821Z,27.05
2023-03-31T09:30:07.137Z,27.01
2023-03-31T09:31:29.987Z,27.58
2023-03-31T09:32:56.833Z,27.73
2023-03-31T09:34:27.100Z,27.98
2023-03-31T09:35:51.434Z,28.14
2023-03-31T09:37:17.898Z,28.67
2023-03-31T09:38:40.262Z,28.87
2023-03-31T09:40:08.119Z,29.20
2023-03-31T09:41:32.412Z,29.94
2023-03-31T09:42:59.443Z,30.30
2023-03-31T09:44:27.791Z,30.58
2023-03-31T09:46:07.673Z,30.82
2023-03-31T09:47:39.293Z,31.51
2023-03-31T09:49:06.879Z,31.82
2023-03-31T09:50:33.161Z,32.29
2023-03-31T09:52:04.890Z,32.74
2023-03-31T09:53:36.263Z,33.06
2023-03-31T09:55:25.198Z,33.67
2023-03-31T09:56:54.919Z,34.06
2023-03-31T09:58:23.263Z,34.58
2023-03-31T09:59:46.609Z,35.04
2023-03-31T10:01:16.388Z,35.76
2023-03-31T10:03:48.916Z,36.25
2023-03-31T10:05:24.130Z,36.40
2023-03-31T10:06:52.671Z,36.30
2023-03-31T10:08:33.625Z,36.92
2023-03-31T10:10:01.189Z,37.31
2023-03-31T10:11:30.702Z,37.38
2023-03-31T10:13:04.097Z,37.92
2023-03-31T10:14:37.592Z,38.08
2023-03-31T10:16:16.315Z,38.29
2023-03-31T10:17:54.774Z,38.62
2023-03-31T10:19:36.839Z,38.60
2023-03-31T10:21:13.985Z,38.49
2023-03-31T10:23:15.559Z,38.44
2023-03-31T10:31:06.807Z,37.87
2023-03-31T10:36:31.728Z,37.84
2023-03-31T10:38:52.204Z,38.27
2023-03-31T10:40:22.680Z,38.38
2023-03-31T10:41:52.468Z,38.64
2023-03-31T10:43:22.482Z,39.19
2023-03-31T10:44:47.285Z,39.37
2023-03-31T10:46:17.279Z,39.51
2023-03-31T10:47:42.182Z,39.39
2023-03-31T10:49:42.056Z,39.79
2023-03-31T10:51:14.611Z,39.80
2023-03-31T10:52:46.988Z,40.20
2023-03-31T10:54:18.646Z,39.80
2023-03-31T10:55:54.679Z,39.69
2023-03-31T10:57:19.197Z,39.68
2023-03-31T10:59:05.412Z,39.54
2023-03-31T11:00:36.604Z,39.04
2023-03-31T11:02:24.520Z,38.79
2023-03-31T11:04:34.994Z,38.66
2023-03-31T11:06:30.743Z,37.82
2023-03-31T11:08:28.645Z,37.59
2023-03-31T11:10:36.656Z,36.95
2023-03-31T11:12:09.293Z,36.70
2023-03-31T11:15:48.592Z,36.14
2023-03-31T11:17:27.921Z,36.24
2023-03-31T11:19:13.068Z,36.31
2023-03-31T11:20:44.671Z,36.40
2023-03-31T11:22:13.979Z,35.99
2023-03-31T11:23:43.460Z,36.17
2023-03-31T11:25:21.560Z,36.21
2023-03-31T11:26:56.214Z,36.16
2023-03-31T11:28:39.307Z,36.06
2023-03-31T11:30:07.848Z,36.23
2023-03-31T11:31:47.938Z,36.26
2023-03-31T11:33:49.944Z,36.45
2023-03-31T11:35:35.751Z,36.14
2023-03-31T11:37:27.629Z,36.31
2023-03-31T11:39:17.531Z,36.30
2023-03-31T11:40:58.965Z,36.64
2023-03-31T11:42:30.696Z,36.71
2023-03-31T11:44:10.111Z,36.54
2023-03-31T11:45:40.381Z,36.47
2023-03-31T11:47:07.893Z,36.80
2023-03-31T11:48:56.844Z,36.81
2023-03-31T11:50:24.713Z,36.87
2023-03-31T11:51:54.007Z,37.09
2023-03-31T11:53:23.048Z,37.23
2023-03-31T11:54:53.514Z,37.29
2023-03-31T11:56:20.873Z,37.50
2023-03-31T11:57:56.351Z,37.40
2023-03-31T11:59:22.998Z,37.32
2023-03-31T12:01:06.445Z,37.63
2023-03-31T12:02:38.130Z,37.57
2023-03-31T12:04:03.224Z,37.93
2023-03-31T12:05:32.300Z,38.06
2023-03-31T12:07:02.402Z,38.15
2023-03-31T12:09:29.381Z,38.30
2023-03-31T12:10:57.987Z,38.13
2023-03-31T12:12:31.624Z,38.49
2023-03-31T12:13:58.403Z,38.11
2023-03-31T12:15:27.102Z,38.27
2023-03-31T12:16:59.778Z,38.68
2023-03-31T12:18:28.245Z,39.06
2023-03-31T12:19:53.792Z,39.37
2023-03-31T12:21:27.886Z,39.37
2023-03-31T12:22:53.192Z,39.81
2023-03-31T12:24:19.706Z,39.59
2023-03-31T12:25:55.500Z,39.91
2023-03-31T12:27:29.630Z,40.01
2023-03-31T12:29:06.227Z,40.20
2023-03-31T12:30:45.230Z,40.51
2023-03-31T12:32:20.249Z,40.24
2023-03-31T12:33:55.313Z,39.83
2023-03-31T12:35:27.444Z,39.60
2023-03-31T12:37:13.165Z,39.57
2023-03-31T12:38:52.144Z,39.54
2023-03-31T12:40:38.070Z,39.65
2023-03-31T12:42:40.932Z,39.79
2023-03-31T12:44:37.353Z,39.92
2023-03-31T12:46:18.005Z,40.00
2023-03-31T12:48:10.509Z,40.11
2023-03-31T12:49:47.478Z,39.84
2023-03-31T12:51:54.472Z,40.04
2023-03-31T12:55:37.612Z,40.41
2023-03-31T12:57:23.344Z,40.39
2023-03-31T12:58:48.502Z,40.86
2023-03-31T13:00:27.045Z,41.72
2023-03-31T13:02:21.704Z,41.59
2023-03-31T13:03:53.123Z,41.60
2023-03-31T13:05:48.970Z,41.84
2023-03-31T13:07:34.894Z,42.28
2023-03-31T13:09:02.670Z,42.35
2023-03-31T13:10:30.886Z,42.29
2023-03-31T13:11:53.260Z,42.29
2023-03-31T13:13:17.791Z,42.72
2023-03-31T13:14:43.708Z,43.54
2023-03-31T13:16:05.926Z,43.63
2023-03-31T13:17:38.323Z,43.87
2023-03-31T13:19:11.937Z,44.39
2023-03-31T13:20:37.910Z,44.89
2023-03-31T13:22:01.851Z,45.14
2023-03-31T13:23:26.027Z,45.81
2023-03-31T13:24:47.252Z,46.02
2023-03-31T13:26:39.573Z,46.64
2023-03-31T13:28:13.964Z,47.03
2023-03-31T13:29:43.194Z,47.51
2023-03-31T13:31:06.454Z,47.70
2023-03-31T13:32:29.358Z,48.56
2023-03-31T13:33:58.587Z,48.94
2023-03-31T13:35:29.980Z,49.50
2023-03-31T13:37:08.946Z,49.82
2023-03-31T13:38:46.403Z,50.45
2023-03-31T13:40:22.699Z,50.83
2023-03-31T13:41:56.483Z,51.32
2023-03-31T13:43:46.170Z,51.11
2023-03-31T13:45:21.148Z,51.17
2023-03-31T13:47:17.960Z,51.86
2023-03-31T13:49:07.686Z,52.62
2023-03-31T13:50:48.604Z,52.30
2023-03-31T13:52:12.692Z,52.31
2023-03-31T13:53:51.460Z,52.91
2023-03-31T13:55:57.930Z,53.66
2023-03-31T13:57:56.461Z,53.66
2023-03-31T13:59:49.778Z,53.79
2023-03-31T14:01:47.352Z,54.15
2023-03-31T14:03:26.770Z,54.51
2023-03-31T14:05:15.718Z,54.67
2023-03-31T14:06:43.186Z,55.50
2023-03-31T14:08:13.078Z,55.61
2023-03-31T14:09:41.394Z,56.27
2023-03-31T14:11:18.929Z,57.03
2023-03-31T14:12:41.486Z,57.57
2023-03-31T14:14:06.378Z,58.48
2023-03-31T14:15:32.954Z,59.33
2023-03-31T14:16:58.606Z,59.79
2023-03-31T14:18:33.337Z,60.53
2023-03-31T14:20:17.371Z,60.93
2023-03-31T14:21:49.620Z,61.36
2023-03-31T14:23:20.486Z,60.74
2023-03-31T14:24:53.952Z,60.93
2023-03-31T14:26:32.725Z,61.61
2023-03-31T14:28:06.706Z,62.43
2023-03-31T14:29:38.651Z,63.05
2023-03-31T14:31:13.761Z,62.84
2023-03-31T14:32:46.065Z,63.11
2023-03-31T14:34:31.274Z,63.43
2023-03-31T14:36:01.968Z,63.69
2023-03-31T14:37:31.078Z,63.55
2023-03-31T14:38:53.144Z,63.48
2023-03-31T14:40:18.528Z,63.73
2023-03-31T14:41:44.716Z,63.82
2023-03-31T14:43:35.310Z,63.96
2023-03-31T14:44:59.274Z,64.03
2023-03-31T14:46:22.622Z,64.15
2023-03-31T14:47:54.382Z,64.23
2023-03-31T14:49:23.747Z,64.44
2023-03-31T14:50:48.084Z,64.25
2023-03-31T14:52:19.723Z,64.25
2023-03-31T14:53:43.680Z,63.82
2023-03-31T14:55:06.997Z,63.43
2023-03-31T14:56:35.032Z,63.69
2023-03-31T14:58:00.714Z,62.88
2023-03-31T14:59:27.783Z,62.79
2023-03-31T15:00:50.302Z,62.72
2023-03-31T15:02:18.352Z,62.30
2023-03-31T15:04:39.535Z,62.19
2023-03-31T15:06:13.251Z,61.53
2023-03-31T15:07:38.660Z,61.30
2023-03-31T15:09:05.548Z,61.65
2023-03-31T15:10:34.783Z,61.34
2023-03-31T15:12:12.888Z,60.98
2023-03-31T15:13:37.104Z,60.97
2023-03-31T15:15:06.429Z,60.88
2023-03-31T15:16:43.437Z,60.76
2023-03-31T15:18:08.771Z,61.31
2023-03-31T15:19:37.805Z,61.34
2023-03-31T15:21:00.319Z,61.43
2023-03-31T15:22:26.278Z,61.51
2023-03-31T15:23:48.427Z,61.40
2023-03-31T15:25:16.938Z,61.65
2023-03-31T15:26:44.130Z,61.54
2023-03-31T15:28:08.622Z,61.81
2023-03-31T15:29:39.364Z,61.89
2023-03-31T15:32:47.330Z,61.40
2023-03-31T15:34:28.029Z,60.92
2023-03-31T15:35:50.831Z,60.63
2023-03-31T15:37:13.105Z,60.59
2023-03-31T15:38:36.153Z,60.41
2023-03-31T15:40:00.761Z,60.55
2023-03-31T15:43:01.683Z,60.27
2023-03-31T15:44:39.123Z,59.76
2023-03-31T15:46:03.443Z,59.62
2023-03-31T15:47:30.767Z,59.34
2023-03-31T15:49:02.457Z,59.28
2023-03-31T15:50:31.217Z,59.76
2023-03-31T15:51:54.399Z,59.46
2023-03-31T15:53:39.048Z,59.20
2023-03-31T15:55:38.370Z,59.22
2023-03-31T15:57:03.970Z,59.00
2023-03-31T15:58:49.500Z,58.97
2023-03-31T16:00:47.556Z,59.06
2023-03-31T16:02:13.366Z,58.96
2023-03-31T16:03:38.854Z,58.80
2023-03-31T16:05:03.014Z,59.01
2023-03-31T16:06:36.518Z,58.94
2023-03-31T16:08:00.033Z,59.11
2023-03-31T16:09:28.055Z,58.79
2023-03-31T16:11:00.324Z,58.69
2023-03-31T16:12:24.558Z,58.77
2023-03-31T16:13:51.611Z,58.74
2023-03-31T16:15:17.614Z,58.82
2023-03-31T16:16:47.134Z,58.87
2023-03-31T16:18:20.402Z,59.09
2023-03-31T16:19:48.917Z,59.10
2023-03-31T16:21:13.122Z,59.30
2023-03-31T16:22:40.832Z,59.69
2023-03-31T16:24:05.653Z,59.71
2023-03-31T16:25:30.228Z,60.07
2023-03-31T16:26:52.649Z,60.36
2023-03-31T16:28:19.826Z,60.59
2023-03-31T16:29:44.274Z,61.17
2023-03-31T16:31:07.037Z,61.26
2023-03-31T16:32:30.871Z,61.49
2023-03-31T16:33:57.855Z,61.50
2023-03-31T16:35:20.032Z,61.27
2023-03-31T16:36:42.997Z,60.91
2023-03-31T16:38:05.195Z,60.77
2023-03-31T16:39:28.926Z,60.87
2023-03-31T16:40:54.751Z,61.03
2023-03-31T16:42:26.099Z,60.99
2023-03-31T16:43:49.666Z,60.97
2023-03-31T16:45:14.952Z,61.29
2023-03-31T16:46:37.774Z,61.33
2023-03-31T16:48:12.869Z,61.67
2023-03-31T16:49:38.248Z,61.70
2023-03-31T16:51:04.156Z,61.95
2023-03-31T16:52:26.752Z,61.81
2023-03-31T16:53:49.526Z,61.93
2023-03-31T16:55:10.577Z,61.95
2023-03-31T16:56:32.971Z,62.30
2023-03-31T16:57:55.727Z,62.43
2023-03-31T16:59:17.814Z,61.75
2023-03-31T17:00:40.379Z,61.80
2023-03-31T17:02:02.413Z,61.87
2023-03-31T17:03:30.462Z,61.86
2023-03-31T17:04:56.722Z,61.88
2023-03-31T17:06:22.285Z,61.91
2023-03-31T17:07:44.942Z,61.96
2023-03-31T17:09:08.974Z,62.20
2023-03-31T17:10:33.757Z,62.51
2023-03-31T17:11:57.357Z,62.58
2023-03-31T17:13:20.120Z,62.92
2023-03-31T17:14:42.328Z,63.03
2023-03-31T17:17:38.274Z,63.23
2023-03-31T17:19:49.286Z,63.25
2023-03-31T17:21:40.309Z,63.21
2023-03-31T17:24:00.219Z,63.08
2023-03-31T17:25:33.293Z,63.16
2023-03-31T17:29:48.132Z,63.12
2023-03-31T17:31:15.104Z,63.44
2023-03-31T17:32:57.661Z,63.38
2023-03-31T17:34:51.072Z,63.35
2023-03-31T17:38:46.026Z,63.47
2023-03-31T17:40:37.573Z,63.56
2023-03-31T17:43:13.612Z,63.71
2023-03-31T17:44:47.055Z,63.71
2023-03-31T17:46:38.061Z,63.66
2023-03-31T17:48:07.977Z,63.84
2023-03-31T17:49:55.024Z,63.66
2023-03-31T17:52:00.466Z,63.44
2023-03-31T17:53:40.533Z,63.56
2023-03-31T17:57:32.662Z,63.51
2023-03-31T17:59:31.514Z,63.39
2023-03-31T18:06:13.925Z,62.94
2023-03-31T18:10:02.743Z,62.88
2023-03-31T18:12:18.727Z,62.98
2023-03-31T18:14:29.594Z,62.94
2023-03-31T18:17:11.465Z,62.68
2023-03-31T18:24:44.960Z,62.55
2023-03-31T18:26:07.855Z,62.63
2023-03-31T18:27:30.129Z,62.72
2023-03-31T18:28:51.463Z,62.90
2023-03-31T18:30:17.084Z,62.77
2023-03-31T18:31:39.335Z,62.92
2023-03-31T18:33:01.949Z,62.91
2023-03-31T18:34:27.465Z,62.82
2023-03-31T18:35:50.027Z,62.96
2023-03-31T18:37:12.842Z,62.78
2023-03-31T18:38:37.188Z,62.61
2023-03-31T18:40:01.857Z,62.37
2023-03-31T18:41:27.153Z,62.42
2023-03-31T18:42:49.669Z,62.36
2023-03-31T18:44:17.233Z,62.27
2023-03-31T18:45:42.406Z,62.38
2023-03-31T18:47:04.723Z,62.22
2023-03-31T18:48:30.111Z,62.30
2023-03-31T18:50:09.596Z,62.18
2023-03-31T18:51:41.369Z,62.24
2023-03-31T18:53:15.549Z,62.27
2023-03-31T18:54:44.222Z,62.38
2023-03-31T18:56:10.909Z,62.38
2023-03-31T18:57:39.046Z,62.52
2023-03-31T18:59:04.258Z,62.48
2023-03-31T19:00:32.914Z,62.50
2023-03-31T19:02:01.899Z,62.63
2023-03-31T19:03:23.890Z,62.62
2023-03-31T19:04:47.232Z,62.49
2023-03-31T19:06:12.522Z,62.97
2023-03-31T19:07:36.026Z,63.07
2023-03-31T19:08:58.740Z,62.93
2023-03-31T19:10:21.575Z,63.17
2023-03-31T19:11:55.211Z,63.40
2023-03-31T19:13:17.982Z,63.28
2023-03-31T19:14:50.381Z,63.29
2023-03-31T19:16:13.630Z,63.27
2023-03-31T19:17:39.355Z,63.27
2023-03-31T19:19:03.634Z,63.49
2023-03-31T19:20:28.554Z,63.70
2023-03-31T19:21:55.015Z,63.60
2023-03-31T19:23:22.641Z,63.64
2023-03-31T19:24:57.049Z,63.73
2023-03-31T19:26:19.878Z,63.80
2023-03-31T19:27:46.966Z,64.07
2023-03-31T19:29:12.011Z,64.05
2023-03-31T19:30:34.608Z,63.93
2023-03-31T19:31:56.892Z,64.08
2023-03-31T19:33:19.883Z,63.87
2023-03-31T19:34:42.792Z,63.99
2023-03-31T19:36:06.103Z,63.85
2023-03-31T19:37:37.997Z,64.09
2023-03-31T19:39:01.508Z,64.20
2023-03-31T19:40:45.115Z,64.12
2023-03-31T19:42:19.314Z,64.11
2023-03-31T19:43:48.245Z,64.10
2023-03-31T19:45:13.923Z,64.08
2023-03-31T19:46:39.118Z,64.00
2023-03-31T19:48:02.022Z,64.30
2023-03-31T19:49:38.918Z,64.22
2023-03-31T19:51:06.070Z,64.18
2023-03-31T19:52:28.499Z,64.12
2023-03-31T19:54:03.046Z,64.12
2023-03-31T19:55:58.482Z,64.41
2023-03-31T19:57:31.359Z,64.34
2023-03-31T19:58:54.978Z,64.32
2023-03-31T20:00:20.130Z,64.49
2023-03-31T20:01:45.912Z,64.59
2023-03-31T20:03:12.106Z,64.56
2023-03-31T20:04:37.252Z,64.44
2023-03-31T20:06:13.998Z,64.71
2023-03-31T20:07:45.300Z,64.79
2023-03-31T20:09:18.431Z,64.92
2023-03-31T20:10:52.975Z,64.80
2023-03-31T20:12:16.040Z,64.88
2023-03-31T20:13:44.917Z,64.88
2023-03-31T20:15:29.705Z,65.08
2023-03-31T20:16:53.007Z,65.22
2023-03-31T20:18:19.961Z,64.89
2023-03-31T20:19:58.174Z,64.84
2023-03-31T20:21:26.206Z,64.83
2023-03-31T20:22:50.587Z,64.57
2023-03-31T20:24:17.303Z,64.82